sensor_id;sensor_type;location;lat;lon;timestamp;P1;durP1;ratioP1;P2;durP2;ratioP2
46457;SDS011;32155;54.076;12.092;2022-12-18T14:38:28;76.97;;;26.40;;
46457;SDS011;32155;54.076;12.092;2022-12-18T14:41:16;78.60;;;26.67;;
46457;SDS011;32155;54.076;12.092;2022-12-18T14:43:44;75.95;;;26.20;;
46457;SDS011;32155;54.076;12.092;2022-12-18T14:54:52;89.28;;;28.30;;
46457;SDS011;32155;54.076;12.092;2022-12-18T14:57:21;82.35;;;26.15;;
46457;SDS011;32155;54.076;12.092;2022-12-18T14:59:51;85.75;;;26.55;;
46457;SDS011;32155;54.076;12.092;2022-12-18T15:02:25;85.40;;;27.95;;
46457;SDS011;32155;54.076;12.092;2022-12-18T15:05:03;76.93;;;27.80;;
46457;SDS011;32155;54.076;12.092;2022-12-18T15:07:41;85.05;;;27.95;;
46457;SDS011;32155;54.076;12.092;2022-12-18T15:10:16;86.97;;;28.17;;
46457;SDS011;32155;54.076;12.092;2022-12-18T15:23:18;89.70;;;29.08;;
46457;SDS011;32155;54.076;12.092;2022-12-18T15:26:13;92.82;;;27.83;;
46457;SDS011;32155;54.076;12.092;2022-12-18T15:28:45;88.50;;;29.13;;
46457;SDS011;32155;54.076;12.092;2022-12-18T15:36:24;91.50;;;27.92;;
46457;SDS011;32155;54.076;12.092;2022-12-18T15:38:54;90.60;;;28.73;;
46457;SDS011;32155;54.076;12.092;2022-12-18T15:41:21;87.43;;;28.70;;
46457;SDS011;32155;54.076;12.092;2022-12-18T15:43:48;89.20;;;28.33;;
46457;SDS011;32155;54.076;12.092;2022-12-18T15:46:15;82.07;;;27.02;;
46457;SDS011;32155;54.076;12.092;2022-12-18T15:48:53;85.53;;;28.30;;
46457;SDS011;32155;54.076;12.092;2022-12-18T15:53:46;87.20;;;28.58;;
46457;SDS011;32155;54.076;12.092;2022-12-18T15:56:14;94.18;;;28.02;;
46457;SDS011;32155;54.076;12.092;2022-12-18T15:58:59;84.22;;;26.35;;
46457;SDS011;32155;54.076;12.092;2022-12-18T16:01:26;92.30;;;26.33;;
46457;SDS011;32155;54.076;12.092;2022-12-18T16:03:53;83.68;;;25.90;;
46457;SDS011;32155;54.076;12.092;2022-12-18T16:06:20;88.20;;;27.98;;
46457;SDS011;32155;54.076;12.092;2022-12-18T16:08:46;80.32;;;25.50;;
46457;SDS011;32155;54.076;12.092;2022-12-18T16:11:33;78.35;;;25.67;;
46457;SDS011;32155;54.076;12.092;2022-12-18T16:14:18;73.97;;;24.00;;
46457;SDS011;32155;54.076;12.092;2022-12-18T16:16:52;79.65;;;27.23;;
46457;SDS011;32155;54.076;12.092;2022-12-18T16:19:19;77.60;;;24.98;;
46457;SDS011;32155;54.076;12.092;2022-12-18T16:21:46;79.10;;;27.55;;
46457;SDS011;32155;54.076;12.092;2022-12-18T16:24:23;85.00;;;25.98;;
46457;SDS011;32155;54.076;12.092;2022-12-18T16:26:50;82.68;;;25.80;;
46457;SDS011;32155;54.076;12.092;2022-12-18T16:29:19;79.35;;;25.02;;
46457;SDS011;32155;54.076;12.092;2022-12-18T16:31:52;80.28;;;26.35;;
46457;SDS011;32155;54.076;12.092;2022-12-18T16:36:55;85.55;;;25.83;;
46457;SDS011;32155;54.076;12.092;2022-12-18T16:39:21;80.63;;;24.98;;
46457;SDS011;32155;54.076;12.092;2022-12-18T16:41:47;78.22;;;25.95;;
46457;SDS011;32155;54.076;12.092;2022-12-18T16:44:16;81.32;;;26.58;;
46457;SDS011;32155;54.076;12.092;2022-12-18T16:46:41;73.38;;;25.95;;
46457;SDS011;32155;54.076;12.092;2022-12-18T16:49:10;76.38;;;24.25;;
46457;SDS011;32155;54.076;12.092;2022-12-18T16:51:40;79.97;;;25.50;;
46457;SDS011;32155;54.076;12.092;2022-12-18T16:54:06;83.85;;;27.33;;
46457;SDS011;32155;54.076;12.092;2022-12-18T16:56:31;85.88;;;26.10;;
46457;SDS011;32155;54.076;12.092;2022-12-18T16:58:58;76.68;;;24.23;;
46457;SDS011;32155;54.076;12.092;2022-12-18T17:01:25;72.00;;;24.52;;
46457;SDS011;32155;54.076;12.092;2022-12-18T17:03:58;76.93;;;24.88;;
46457;SDS011;32155;54.076;12.092;2022-12-18T17:06:26;76.57;;;26.20;;
46457;SDS011;32155;54.076;12.092;2022-12-18T17:08:54;74.63;;;24.88;;
46457;SDS011;32155;54.076;12.092;2022-12-18T17:11:22;78.22;;;26.15;;
46457;SDS011;32155;54.076;12.092;2022-12-18T17:13:49;79.38;;;25.67;;
46457;SDS011;32155;54.076;12.092;2022-12-18T17:16:14;78.97;;;25.10;;
46457;SDS011;32155;54.076;12.092;2022-12-18T17:18:41;79.13;;;27.08;;
46457;SDS011;32155;54.076;12.092;2022-12-18T17:21:08;83.07;;;27.15;;
46457;SDS011;32155;54.076;12.092;2022-12-18T17:23:34;81.00;;;25.52;;
46457;SDS011;32155;54.076;12.092;2022-12-18T17:26:01;77.72;;;26.05;;
46457;SDS011;32155;54.076;12.092;2022-12-18T17:28:29;79.90;;;24.42;;
46457;SDS011;32155;54.076;12.092;2022-12-18T17:30:56;65.20;;;25.25;;
46457;SDS011;32155;54.076;12.092;2022-12-18T17:33:28;71.30;;;24.67;;
46457;SDS011;32155;54.076;12.092;2022-12-18T17:35:54;80.75;;;23.77;;
46457;SDS011;32155;54.076;12.092;2022-12-18T17:38:24;83.60;;;26.55;;
46457;SDS011;32155;54.076;12.092;2022-12-18T17:40:51;84.80;;;26.33;;
46457;SDS011;32155;54.076;12.092;2022-12-18T17:43:19;73.85;;;26.25;;
46457;SDS011;32155;54.076;12.092;2022-12-18T17:45:45;82.78;;;26.75;;
46457;SDS011;32155;54.076;12.092;2022-12-18T17:48:11;87.82;;;28.77;;
46457;SDS011;32155;54.076;12.092;2022-12-18T17:50:38;85.28;;;28.40;;
46457;SDS011;32155;54.076;12.092;2022-12-18T17:53:04;92.25;;;29.15;;
46457;SDS011;32155;54.076;12.092;2022-12-18T17:55:30;92.68;;;28.25;;
46457;SDS011;32155;54.076;12.092;2022-12-18T17:57:58;89.22;;;28.52;;
46457;SDS011;32155;54.076;12.092;2022-12-18T18:00:23;81.40;;;27.58;;
46457;SDS011;32155;54.076;12.092;2022-12-18T18:02:49;89.72;;;29.67;;
46457;SDS011;32155;54.076;12.092;2022-12-18T18:05:15;87.45;;;27.95;;
46457;SDS011;32155;54.076;12.092;2022-12-18T18:07:40;84.03;;;29.20;;
46457;SDS011;32155;54.076;12.092;2022-12-18T18:10:06;82.57;;;28.15;;
46457;SDS011;32155;54.076;12.092;2022-12-18T18:12:32;93.13;;;29.15;;
46457;SDS011;32155;54.076;12.092;2022-12-18T18:15:16;92.88;;;30.33;;
46457;SDS011;32155;54.076;12.092;2022-12-18T18:17:43;94.70;;;31.23;;
46457;SDS011;32155;54.076;12.092;2022-12-18T18:20:08;92.65;;;28.42;;
46457;SDS011;32155;54.076;12.092;2022-12-18T18:22:35;95.10;;;31.13;;
46457;SDS011;32155;54.076;12.092;2022-12-18T18:25:00;98.47;;;30.63;;
46457;SDS011;32155;54.076;12.092;2022-12-18T18:27:29;93.05;;;29.95;;
46457;SDS011;32155;54.076;12.092;2022-12-18T18:29:55;90.45;;;30.55;;
46457;SDS011;32155;54.076;12.092;2022-12-18T18:32:23;88.10;;;28.90;;
46457;SDS011;32155;54.076;12.092;2022-12-18T18:34:49;91.40;;;29.77;;
46457;SDS011;32155;54.076;12.092;2022-12-18T18:37:15;89.68;;;29.20;;
46457;SDS011;32155;54.076;12.092;2022-12-18T18:39:42;88.50;;;30.65;;
46457;SDS011;32155;54.076;12.092;2022-12-18T18:42:08;83.28;;;28.83;;
46457;SDS011;32155;54.076;12.092;2022-12-18T18:44:34;80.40;;;27.90;;
46457;SDS011;32155;54.076;12.092;2022-12-18T18:46:59;83.90;;;28.85;;
46457;SDS011;32155;54.076;12.092;2022-12-18T18:49:25;87.13;;;29.02;;
46457;SDS011;32155;54.076;12.092;2022-12-18T18:51:55;86.15;;;30.25;;
46457;SDS011;32155;54.076;12.092;2022-12-18T18:54:22;84.93;;;30.05;;
46457;SDS011;32155;54.076;12.092;2022-12-18T18:56:48;83.13;;;29.35;;
46457;SDS011;32155;54.076;12.092;2022-12-18T18:59:16;82.35;;;28.95;;
46457;SDS011;32155;54.076;12.092;2022-12-18T19:01:42;81.57;;;28.83;;
46457;SDS011;32155;54.076;12.092;2022-12-18T19:04:08;88.85;;;31.00;;
46457;SDS011;32155;54.076;12.092;2022-12-18T19:06:33;81.13;;;28.75;;
46457;SDS011;32155;54.076;12.092;2022-12-18T19:09:02;92.85;;;31.02;;
46457;SDS011;32155;54.076;12.092;2022-12-18T19:11:28;90.63;;;31.02;;
46457;SDS011;32155;54.076;12.092;2022-12-18T19:14:14;82.97;;;30.15;;
46457;SDS011;32155;54.076;12.092;2022-12-18T19:16:40;81.43;;;29.85;;
46457;SDS011;32155;54.076;12.092;2022-12-18T19:19:06;93.82;;;31.67;;
46457;SDS011;32155;54.076;12.092;2022-12-18T19:21:32;87.68;;;31.13;;
46457;SDS011;32155;54.076;12.092;2022-12-18T19:23:59;82.47;;;30.17;;
46457;SDS011;32155;54.076;12.092;2022-12-18T19:26:24;93.90;;;30.52;;
46457;SDS011;32155;54.076;12.092;2022-12-18T19:28:52;92.03;;;30.92;;
46457;SDS011;32155;54.076;12.092;2022-12-18T19:31:18;88.40;;;31.67;;
46457;SDS011;32155;54.076;12.092;2022-12-18T19:33:47;92.65;;;31.00;;
46457;SDS011;32155;54.076;12.092;2022-12-18T19:36:19;87.75;;;31.95;;
46457;SDS011;32155;54.076;12.092;2022-12-18T19:38:47;98.38;;;32.72;;
46457;SDS011;32155;54.076;12.092;2022-12-18T19:41:15;104.85;;;35.90;;
46457;SDS011;32155;54.076;12.092;2022-12-18T19:43:42;94.93;;;31.90;;
46457;SDS011;32155;54.076;12.092;2022-12-18T19:46:09;94.90;;;31.67;;
46457;SDS011;32155;54.076;12.092;2022-12-18T19:48:38;88.85;;;30.35;;
46457;SDS011;32155;54.076;12.092;2022-12-18T19:51:07;87.07;;;30.85;;
46457;SDS011;32155;54.076;12.092;2022-12-18T19:53:34;90.95;;;29.73;;
46457;SDS011;32155;54.076;12.092;2022-12-18T19:56:06;82.18;;;29.70;;
46457;SDS011;32155;54.076;12.092;2022-12-18T19:58:38;80.65;;;29.15;;
46457;SDS011;32155;54.076;12.092;2022-12-18T20:01:04;79.88;;;27.88;;
46457;SDS011;32155;54.076;12.092;2022-12-18T20:03:30;82.68;;;28.60;;
46457;SDS011;32155;54.076;12.092;2022-12-18T20:08:45;80.85;;;27.73;;
46457;SDS011;32155;54.076;12.092;2022-12-18T20:11:14;78.57;;;28.17;;
46457;SDS011;32155;54.076;12.092;2022-12-18T20:13:41;76.88;;;28.65;;
46457;SDS011;32155;54.076;12.092;2022-12-18T20:16:07;84.80;;;30.60;;
46457;SDS011;32155;54.076;12.092;2022-12-18T20:18:33;71.97;;;26.60;;
46457;SDS011;32155;54.076;12.092;2022-12-18T20:21:01;71.22;;;28.27;;
46457;SDS011;32155;54.076;12.092;2022-12-18T20:23:27;70.47;;;25.92;;
46457;SDS011;32155;54.076;12.092;2022-12-18T20:25:53;70.38;;;28.45;;
46457;SDS011;32155;54.076;12.092;2022-12-18T20:28:20;68.05;;;25.27;;
46457;SDS011;32155;54.076;12.092;2022-12-18T20:30:46;73.38;;;26.55;;
46457;SDS011;32155;54.076;12.092;2022-12-18T20:33:13;69.15;;;25.58;;
46457;SDS011;32155;54.076;12.092;2022-12-18T20:35:39;58.92;;;24.23;;
46457;SDS011;32155;54.076;12.092;2022-12-18T20:38:05;62.60;;;23.52;;
46457;SDS011;32155;54.076;12.092;2022-12-18T20:40:31;62.92;;;24.48;;
46457;SDS011;32155;54.076;12.092;2022-12-18T20:42:57;61.38;;;23.83;;
46457;SDS011;32155;54.076;12.092;2022-12-18T20:45:23;60.42;;;22.35;;
46457;SDS011;32155;54.076;12.092;2022-12-18T20:47:51;60.05;;;23.05;;
46457;SDS011;32155;54.076;12.092;2022-12-18T20:50:22;60.17;;;22.92;;
46457;SDS011;32155;54.076;12.092;2022-12-18T20:52:50;60.42;;;24.15;;
46457;SDS011;32155;54.076;12.092;2022-12-18T20:55:16;54.95;;;22.85;;
46457;SDS011;32155;54.076;12.092;2022-12-18T20:57:41;74.35;;;25.40;;
46457;SDS011;32155;54.076;12.092;2022-12-18T21:00:07;66.72;;;26.00;;
46457;SDS011;32155;54.076;12.092;2022-12-18T21:02:35;62.88;;;25.30;;
46457;SDS011;32155;54.076;12.092;2022-12-18T21:05:01;64.43;;;24.92;;
46457;SDS011;32155;54.076;12.092;2022-12-18T21:07:37;62.25;;;24.42;;
46457;SDS011;32155;54.076;12.092;2022-12-18T21:10:07;63.00;;;26.20;;
46457;SDS011;32155;54.076;12.092;2022-12-18T21:12:33;63.72;;;26.58;;
46457;SDS011;32155;54.076;12.092;2022-12-18T21:15:02;63.25;;;25.83;;
46457;SDS011;32155;54.076;12.092;2022-12-18T21:17:30;61.30;;;25.15;;
46457;SDS011;32155;54.076;12.092;2022-12-18T21:19:56;47.50;;;21.52;;
46457;SDS011;32155;54.076;12.092;2022-12-18T21:22:23;64.50;;;24.98;;
46457;SDS011;32155;54.076;12.092;2022-12-18T21:24:50;60.28;;;24.77;;
46457;SDS011;32155;54.076;12.092;2022-12-18T21:27:16;59.30;;;24.10;;
46457;SDS011;32155;54.076;12.092;2022-12-18T21:29:42;58.67;;;25.35;;
46457;SDS011;32155;54.076;12.092;2022-12-18T21:32:13;65.57;;;25.88;;
46457;SDS011;32155;54.076;12.092;2022-12-18T21:34:38;61.25;;;25.40;;
46457;SDS011;32155;54.076;12.092;2022-12-18T21:39:32;65.60;;;24.42;;
46457;SDS011;32155;54.076;12.092;2022-12-18T21:41:59;63.78;;;24.80;;
46457;SDS011;32155;54.076;12.092;2022-12-18T21:44:43;62.97;;;24.65;;
46457;SDS011;32155;54.076;12.092;2022-12-18T21:47:13;56.80;;;25.80;;
46457;SDS011;32155;54.076;12.092;2022-12-18T21:49:39;64.50;;;25.13;;
46457;SDS011;32155;54.076;12.092;2022-12-18T21:52:04;62.42;;;24.70;;
46457;SDS011;32155;54.076;12.092;2022-12-18T21:54:34;61.10;;;26.42;;
46457;SDS011;32155;54.076;12.092;2022-12-18T21:57:02;60.78;;;25.38;;
46457;SDS011;32155;54.076;12.092;2022-12-18T21:59:32;57.83;;;24.50;;
46457;SDS011;32155;54.076;12.092;2022-12-18T22:02:00;58.58;;;24.92;;
46457;SDS011;32155;54.076;12.092;2022-12-18T22:04:31;64.05;;;25.00;;
46457;SDS011;32155;54.076;12.092;2022-12-18T22:06:59;62.33;;;24.92;;
46457;SDS011;32155;54.076;12.092;2022-12-18T22:09:24;56.03;;;24.90;;
46457;SDS011;32155;54.076;12.092;2022-12-18T22:11:51;59.70;;;25.52;;
46457;SDS011;32155;54.076;12.092;2022-12-18T22:14:17;56.92;;;24.67;;
46457;SDS011;32155;54.076;12.092;2022-12-18T22:16:43;60.50;;;25.77;;
46457;SDS011;32155;54.076;12.092;2022-12-18T22:19:10;56.10;;;25.20;;
46457;SDS011;32155;54.076;12.092;2022-12-18T22:21:37;64.45;;;26.67;;
46457;SDS011;32155;54.076;12.092;2022-12-18T22:26:32;61.92;;;26.73;;
46457;SDS011;32155;54.076;12.092;2022-12-18T22:28:59;66.15;;;26.13;;
46457;SDS011;32155;54.076;12.092;2022-12-18T22:31:44;62.53;;;26.50;;
46457;SDS011;32155;54.076;12.092;2022-12-18T22:34:10;68.78;;;28.63;;
46457;SDS011;32155;54.076;12.092;2022-12-18T22:36:39;66.40;;;26.10;;
46457;SDS011;32155;54.076;12.092;2022-12-18T22:39:11;59.70;;;25.90;;
46457;SDS011;32155;54.076;12.092;2022-12-18T22:41:38;61.85;;;25.38;;
46457;SDS011;32155;54.076;12.092;2022-12-18T22:44:04;57.45;;;24.92;;
46457;SDS011;32155;54.076;12.092;2022-12-18T22:46:31;64.63;;;26.73;;
46457;SDS011;32155;54.076;12.092;2022-12-18T22:49:00;58.42;;;24.50;;
46457;SDS011;32155;54.076;12.092;2022-12-18T22:51:26;57.30;;;24.42;;
46457;SDS011;32155;54.076;12.092;2022-12-18T22:53:54;58.15;;;24.80;;
46457;SDS011;32155;54.076;12.092;2022-12-18T22:56:22;58.15;;;24.70;;
46457;SDS011;32155;54.076;12.092;2022-12-18T22:58:50;57.55;;;25.38;;
46457;SDS011;32155;54.076;12.092;2022-12-18T23:01:18;55.00;;;24.90;;
46457;SDS011;32155;54.076;12.092;2022-12-18T23:03:51;55.93;;;25.53;;
46457;SDS011;32155;54.076;12.092;2022-12-18T23:06:17;56.35;;;25.73;;
46457;SDS011;32155;54.076;12.092;2022-12-18T23:08:49;55.35;;;24.58;;
46457;SDS011;32155;54.076;12.092;2022-12-18T23:11:16;60.00;;;25.08;;
46457;SDS011;32155;54.076;12.092;2022-12-18T23:13:50;55.88;;;23.67;;
46457;SDS011;32155;54.076;12.092;2022-12-18T23:16:19;56.60;;;24.23;;
46457;SDS011;32155;54.076;12.092;2022-12-18T23:18:55;51.50;;;23.65;;
46457;SDS011;32155;54.076;12.092;2022-12-18T23:21:21;52.35;;;24.08;;
46457;SDS011;32155;54.076;12.092;2022-12-18T23:23:49;54.83;;;24.13;;
46457;SDS011;32155;54.076;12.092;2022-12-18T23:26:21;50.92;;;22.25;;
46457;SDS011;32155;54.076;12.092;2022-12-18T23:28:48;56.67;;;23.40;;
46457;SDS011;32155;54.076;12.092;2022-12-18T23:31:22;51.75;;;23.77;;
46457;SDS011;32155;54.076;12.092;2022-12-18T23:33:54;54.25;;;24.42;;
46457;SDS011;32155;54.076;12.092;2022-12-18T23:36:21;53.85;;;22.38;;
46457;SDS011;32155;54.076;12.092;2022-12-18T23:38:48;53.92;;;23.27;;
46457;SDS011;32155;54.076;12.092;2022-12-18T23:41:19;56.22;;;23.20;;
46457;SDS011;32155;54.076;12.092;2022-12-18T23:46:19;51.92;;;23.05;;
46457;SDS011;32155;54.076;12.092;2022-12-18T23:48:50;55.23;;;23.07;;
46457;SDS011;32155;54.076;12.092;2022-12-18T23:51:17;53.30;;;22.45;;
46457;SDS011;32155;54.076;12.092;2022-12-18T23:53:44;47.85;;;21.42;;
46457;SDS011;32155;54.076;12.092;2022-12-18T23:56:14;49.63;;;22.30;;
46457;SDS011;32155;54.076;12.092;2022-12-18T23:58:40;51.17;;;22.60;;
